Terminal Aerodrome Forecast
Issued by NWS Atlanta, GA

Home | Current Version | Previous Version | Text Only | Print | Product List | Glossary On
Versions: 1 2 3 4 5 6 7 8 9 10 11 12 13 14 15 16 17 18 19 20 21 22 23 24 25 26 27 28 29 30 31 32 33 34 35 36 37 38 39 40
000
FTUS42 KFFC 231500 AAB
TAFATL
TAF AMD
KATL 231545Z 2316/2418 32009KT P6SM SCT040
     FM231800 33011KT P6SM VCSH SCT050
      TEMPO 2319/2323 5SM -TSRA BKN035CB
     FM240200 35008KT P6SM SCT070 SCT120
     FM240800 03007KT P6SM SCT040 SCT070
     FM241200 06010KT P6SM VCSH BKN040 PROB30 2412/2418 5SM -SHRA BR
      BKN025=

USA.gov is the U.S. government's official web portal to all federal, state and local government web resources and services.